createdAt,value
2019-02-26T00:00:56.481Z,102553.27
2019-02-26T00:02:00.516Z,102552.08
2019-02-26T00:03:09.812Z,102545.22
2019-02-26T00:04:13.938Z,102547.41
2019-02-26T00:05:21.383Z,102546.28
2019-02-26T00:06:24.892Z,102554.52
2019-02-26T00:07:28.113Z,102557.06
2019-02-26T00:08:33.355Z,102563.14
2019-02-26T00:09:35.729Z,102559.94
2019-02-26T00:10:39.813Z,102558.09
2019-02-26T00:11:43.968Z,102559.78
2019-02-26T00:12:48.006Z,102563.48
2019-02-26T00:13:54.426Z,102573.56
2019-02-26T00:14:57.515Z,102583.69
2019-02-26T00:16:05.696Z,102596.50
2019-02-26T00:17:08.690Z,102599.54
2019-02-26T00:18:11.722Z,102603.08
2019-02-26T00:19:14.704Z,102591.83
2019-02-26T00:20:19.246Z,102588.64
2019-02-26T00:21:24.361Z,102586.06
2019-02-26T00:22:29.927Z,102587.88
2019-02-26T00:23:32.581Z,102586.16
2019-02-26T00:24:37.770Z,102581.49
2019-02-26T00:25:41.416Z,102587.23
2019-02-26T00:26:45.864Z,102590.95
2019-02-26T00:27:51.894Z,102578.33
2019-02-26T00:28:54.864Z,102588.42
2019-02-26T00:29:59.266Z,102588.60
2019-02-26T00:31:04.263Z,102584.22
2019-02-26T00:32:10.052Z,102586.25
2019-02-26T00:33:12.693Z,102590.01
2019-02-26T00:34:18.667Z,102574.34
2019-02-26T00:35:22.893Z,102577.62
2019-02-26T00:36:27.037Z,102585.99
2019-02-26T00:37:30.684Z,102589.03
2019-02-26T00:38:35.429Z,102590.73
2019-02-26T00:39:38.609Z,102590.09
2019-02-26T00:40:43.234Z,102587.66
2019-02-26T00:41:49.328Z,102579.94
2019-02-26T00:42:54.396Z,102572.84
2019-02-26T00:43:57.626Z,102581.95
2019-02-26T00:45:00.955Z,102586.74
2019-02-26T00:46:05.590Z,102587.41
2019-02-26T00:47:09.041Z,102582.30
2019-02-26T00:48:13.011Z,102581.95
2019-02-26T00:49:19.185Z,102573.87
2019-02-26T00:50:21.832Z,102579.60
2019-02-26T00:51:26.979Z,102575.44
2019-02-26T00:52:32.558Z,102572.95
2019-02-26T00:53:35.247Z,102576.98
2019-02-26T00:54:39.757Z,102561.45
2019-02-26T00:55:44.167Z,102554.71
2019-02-26T00:56:48.604Z,102568.61
2019-02-26T00:57:56.830Z,102575.64
2019-02-26T00:58:57.415Z,102573.66
2019-02-26T01:00:03.380Z,102566.92
2019-02-26T01:01:08.201Z,102564.06
2019-02-26T01:02:10.926Z,102562.88
2019-02-26T01:03:15.426Z,102575.30
2019-02-26T01:04:19.711Z,102572.77
2019-02-26T01:05:24.279Z,102576.46
2019-02-26T01:06:28.997Z,102573.61
2019-02-26T01:07:33.199Z,102565.86
2019-02-26T01:08:38.007Z,102563.52
2019-02-26T01:09:41.777Z,102570.25
2019-02-26T01:10:45.902Z,102581.69
2019-02-26T01:11:51.892Z,102573.61
2019-02-26T01:12:56.409Z,102577.23
2019-02-26T01:13:59.548Z,102574.19
2019-02-26T01:15:04.938Z,102577.39
2019-02-26T01:16:07.550Z,102573.69
2019-02-26T01:17:12.605Z,102572.08
2019-02-26T01:18:15.739Z,102567.00
2019-02-26T01:19:19.995Z,102574.43
2019-02-26T01:20:25.636Z,102569.33
2019-02-26T01:21:29.101Z,102571.34
2019-02-26T01:22:32.940Z,102571.39
2019-02-26T01:23:36.504Z,102586.34
2019-02-26T01:24:40.841Z,102572.08
2019-02-26T01:25:44.951Z,102570.73
2019-02-26T01:26:49.062Z,102578.81
2019-02-26T01:27:53.925Z,102573.08
2019-02-26T01:28:58.576Z,102578.13
2019-02-26T01:30:03.461Z,102570.55
2019-02-26T01:31:07.363Z,102580.83
2019-02-26T01:32:13.209Z,102584.53
2019-02-26T01:33:14.350Z,102585.56
2019-02-26T01:34:20.291Z,102580.16
2019-02-26T01:35:22.639Z,102582.89
2019-02-26T01:36:26.691Z,102574.80
2019-02-26T01:37:32.198Z,102574.45
2019-02-26T01:38:37.414Z,102574.80
2019-02-26T01:39:42.347Z,102570.06
2019-02-26T01:40:45.661Z,102577.66
2019-02-26T01:41:47.839Z,102576.48
2019-02-26T01:42:52.858Z,102584.23
2019-02-26T01:43:55.844Z,102577.36
2019-02-26T01:44:59.941Z,102582.59
2019-02-26T01:46:04.043Z,102570.06
2019-02-26T01:47:08.105Z,102583.13
2019-02-26T01:48:16.086Z,102579.26
2019-02-26T01:49:17.144Z,102579.63
2019-02-26T01:50:20.527Z,102575.27
2019-02-26T01:51:26.148Z,102571.55
2019-02-26T01:52:28.739Z,102568.36
2019-02-26T01:53:32.842Z,102568.92
2019-02-26T01:54:37.360Z,102570.27
2019-02-26T01:55:42.094Z,102568.55
2019-02-26T01:56:48.038Z,102564.88
2019-02-26T01:57:52.111Z,102566.56
2019-02-26T01:58:57.094Z,102570.10
2019-02-26T02:00:00.380Z,102569.59
2019-02-26T02:01:04.549Z,102561.85
2019-02-26T02:02:12.168Z,102575.68
2019-02-26T02:03:12.772Z,102575.84
2019-02-26T02:04:17.767Z,102581.73
2019-02-26T02:05:21.587Z,102571.11
2019-02-26T02:06:25.204Z,102577.35
2019-02-26T02:07:30.611Z,102571.30
2019-02-26T02:08:33.385Z,102582.08
2019-02-26T02:09:37.566Z,102578.03
2019-02-26T02:10:41.958Z,102577.37
2019-02-26T02:11:46.490Z,102587.47
2019-02-26T02:12:50.994Z,102581.41
2019-02-26T02:13:55.162Z,102571.61
2019-02-26T02:14:59.279Z,102577.92
2019-02-26T02:16:04.475Z,102580.62
2019-02-26T02:17:08.509Z,102574.73
2019-02-26T02:18:11.711Z,102567.15
2019-02-26T02:19:23.533Z,102567.99
2019-02-26T02:20:26.321Z,102567.83
2019-02-26T02:21:31.482Z,102563.44
2019-02-26T02:22:35.277Z,102558.05
2019-02-26T02:23:38.626Z,102572.22
2019-02-26T02:24:44.478Z,102562.59
2019-02-26T02:25:46.855Z,102570.03
2019-02-26T02:26:52.953Z,102575.29
2019-02-26T02:27:56.901Z,102572.59
2019-02-26T02:28:59.155Z,102568.50
2019-02-26T02:30:03.379Z,102582.55
2019-02-26T02:31:07.495Z,102580.25
2019-02-26T02:32:11.553Z,102585.64
2019-02-26T02:33:19.578Z,102584.30
2019-02-26T02:34:29.327Z,102572.09
2019-02-26T02:35:30.548Z,102586.62
2019-02-26T02:36:34.655Z,102567.03
2019-02-26T02:37:38.746Z,102573.80
2019-02-26T02:38:42.886Z,102585.09
2019-02-26T02:39:46.946Z,102565.34
2019-02-26T02:40:52.722Z,102572.95
2019-02-26T02:41:55.358Z,102583.42
2019-02-26T02:43:04.140Z,102578.90
2019-02-26T02:44:03.638Z,102570.23
2019-02-26T02:45:11.325Z,102581.39
2019-02-26T02:46:13.013Z,102577.84
2019-02-26T02:47:17.149Z,102569.69
2019-02-26T02:48:21.198Z,102578.51
2019-02-26T02:49:25.254Z,102575.83
2019-02-26T02:50:29.297Z,102569.45
2019-02-26T02:51:34.618Z,102565.41
2019-02-26T02:52:38.004Z,102560.01
2019-02-26T02:53:41.879Z,102566.38
2019-02-26T02:54:47.515Z,102569.13
2019-02-26T02:55:51.612Z,102563.73
2019-02-26T02:56:56.295Z,102558.28
2019-02-26T02:58:00.454Z,102571.14
2019-02-26T02:59:03.550Z,102574.69
2019-02-26T03:00:08.530Z,102573.84
2019-02-26T03:01:13.825Z,102578.39
2019-02-26T03:02:17.810Z,102579.88
2019-02-26T03:03:20.237Z,102580.25
2019-02-26T03:04:27.892Z,102581.44
2019-02-26T03:05:31.282Z,102581.27
2019-02-26T03:06:35.122Z,102584.31
2019-02-26T03:07:36.796Z,102580.44
2019-02-26T03:08:42.224Z,102589.70
2019-02-26T03:09:45.772Z,102588.52
2019-02-26T03:10:49.262Z,102585.27
2019-02-26T03:11:55.051Z,102585.00
2019-02-26T03:13:00.096Z,102591.11
2019-02-26T03:14:01.676Z,102587.53
2019-02-26T03:15:08.071Z,102588.70
2019-02-26T03:16:10.641Z,102585.64
2019-02-26T03:17:17.407Z,102591.56
2019-02-26T03:18:18.895Z,102583.63
2019-02-26T03:19:23.215Z,102589.87
2019-02-26T03:20:28.727Z,102587.69
2019-02-26T03:21:31.410Z,102594.77
2019-02-26T03:22:36.330Z,102594.77
2019-02-26T03:23:41.251Z,102593.58
2019-02-26T03:24:43.896Z,102591.06
2019-02-26T03:25:49.807Z,102595.61
2019-02-26T03:26:52.097Z,102593.75
2019-02-26T03:27:56.160Z,102590.89
2019-02-26T03:29:00.218Z,102583.98
2019-02-26T03:30:04.861Z,102587.40
2019-02-26T03:31:08.914Z,102588.03
2019-02-26T03:32:13.047Z,102585.70
2019-02-26T03:33:17.098Z,102582.64
2019-02-26T03:34:25.173Z,102582.30
2019-02-26T03:35:25.436Z,102587.34
2019-02-26T03:36:31.401Z,102590.55
2019-02-26T03:37:34.611Z,102579.25
2019-02-26T03:38:37.796Z,102586.67
2019-02-26T03:39:41.848Z,102593.75
2019-02-26T03:40:48.987Z,102591.06
2019-02-26T03:41:51.068Z,102593.25
2019-02-26T03:42:54.308Z,102589.70
2019-02-26T03:44:00.637Z,102597.97
2019-02-26T03:45:02.939Z,102602.86
2019-02-26T03:46:06.854Z,102606.56
2019-02-26T03:47:10.928Z,102607.23
2019-02-26T03:48:19.250Z,102612.47
2019-02-26T03:49:19.141Z,102614.66
2019-02-26T03:50:26.304Z,102619.84
2019-02-26T03:51:27.537Z,102614.95
2019-02-26T03:52:32.246Z,102618.16
2019-02-26T03:53:36.331Z,102615.96
2019-02-26T03:54:40.248Z,102609.22
2019-02-26T03:55:44.179Z,102619.00
2019-02-26T03:56:48.336Z,102613.10
2019-02-26T03:57:55.972Z,102621.75
2019-02-26T03:58:57.811Z,102617.54
2019-02-26T04:00:05.632Z,102617.20
2019-02-26T04:01:07.499Z,102619.39
2019-02-26T04:02:09.507Z,102619.21
2019-02-26T04:03:15.154Z,102616.69
2019-02-26T04:04:17.232Z,102618.89
2019-02-26T04:05:21.330Z,102610.13
2019-02-26T04:06:25.478Z,102608.98
2019-02-26T04:07:30.269Z,102615.23
2019-02-26T04:08:33.781Z,102618.27
2019-02-26T04:09:41.860Z,102622.83
2019-02-26T04:10:41.925Z,102619.96
2019-02-26T04:11:49.616Z,102613.03
2019-02-26T04:12:52.298Z,102615.57
2019-02-26T04:13:56.604Z,102619.78
2019-02-26T04:14:58.369Z,102621.64
2019-02-26T04:16:04.585Z,102623.78
2019-02-26T04:17:08.491Z,102625.98
2019-02-26T04:18:10.586Z,102621.42
2019-02-26T04:19:14.588Z,102622.14
2019-02-26T04:20:18.689Z,102622.78
2019-02-26T04:21:22.703Z,102627.67
2019-02-26T04:22:28.130Z,102631.22
2019-02-26T04:23:33.169Z,102630.58
2019-02-26T04:24:38.096Z,102629.86
2019-02-26T04:25:52.092Z,102635.42
2019-02-26T04:27:06.728Z,102635.77
2019-02-26T04:28:13.903Z,102642.01
2019-02-26T04:30:34.049Z,102645.77
2019-02-26T04:33:02.040Z,102641.55
2019-02-26T04:34:29.626Z,102634.98
2019-02-26T04:35:55.555Z,102638.03
2019-02-26T04:38:23.114Z,102629.63
2019-02-26T04:39:45.118Z,102628.92
2019-02-26T04:41:00.225Z,102626.22
2019-02-26T04:42:17.559Z,102630.94
2019-02-26T04:45:37.696Z,102627.23
2019-02-26T04:47:00.197Z,102621.48
2019-02-26T04:48:02.808Z,102632.79
2019-02-26T04:49:06.790Z,102638.03
2019-02-26T04:50:10.772Z,102646.13
2019-02-26T04:51:14.860Z,102643.75
2019-02-26T04:52:18.813Z,102643.75
2019-02-26T04:53:23.345Z,102645.77
2019-02-26T04:54:30.053Z,102645.77
2019-02-26T04:55:35.033Z,102649.98
2019-02-26T04:56:37.082Z,102646.44
2019-02-26T04:57:42.061Z,102647.23
2019-02-26T04:58:45.412Z,102647.39
2019-02-26T04:59:47.473Z,102648.39
2019-02-26T05:00:51.519Z,102655.14
2019-02-26T05:01:57.458Z,102647.05
2019-02-26T05:02:59.751Z,102647.71
2019-02-26T05:04:03.824Z,102650.75
2019-02-26T05:05:07.899Z,102654.08
2019-02-26T05:06:11.949Z,102665.25
2019-02-26T05:07:17.258Z,102663.19
2019-02-26T05:08:19.945Z,102672.79
2019-02-26T05:09:24.732Z,102681.39
2019-02-26T05:10:29.761Z,102679.19
2019-02-26T05:11:35.788Z,102674.80
2019-02-26T05:12:37.921Z,102674.63
2019-02-26T05:13:40.150Z,102675.47
2019-02-26T05:14:44.445Z,102674.30
2019-02-26T05:15:48.710Z,102668.91
2019-02-26T05:16:52.885Z,102656.26
2019-02-26T05:17:57.204Z,102660.65
2019-02-26T05:19:01.329Z,102651.76
2019-02-26T05:20:07.297Z,102658.18
2019-02-26T05:21:12.707Z,102657.84
2019-02-26T05:22:14.587Z,102663.73
2019-02-26T05:23:20.611Z,102664.93
2019-02-26T05:24:24.391Z,102676.22
2019-02-26T05:25:27.417Z,102670.83
2019-02-26T05:26:31.438Z,102672.02
2019-02-26T05:27:36.348Z,102671.67
2019-02-26T05:28:40.852Z,102681.12
2019-02-26T05:29:46.662Z,102681.12
2019-02-26T05:30:49.538Z,102679.09
2019-02-26T05:31:52.173Z,102681.44
2019-02-26T05:32:57.944Z,102685.11
2019-02-26T05:34:00.372Z,102687.47
2019-02-26T05:35:04.561Z,102687.47
2019-02-26T05:36:09.554Z,102695.91
2019-02-26T05:37:13.964Z,102699.95
2019-02-26T05:38:16.927Z,102702.66
2019-02-26T05:39:21.705Z,102702.66
2019-02-26T05:40:25.185Z,102696.06
2019-02-26T05:41:29.285Z,102699.95
2019-02-26T05:42:33.336Z,102697.13
2019-02-26T05:43:37.443Z,102695.41
2019-02-26T05:44:41.480Z,102698.61
2019-02-26T05:45:45.573Z,102701.30
2019-02-26T05:46:50.830Z,102703.03
2019-02-26T05:50:16.584Z,102713.32
2019-02-26T05:51:47.847Z,102711.31
2019-02-26T05:53:22.970Z,102717.55
2019-02-26T05:54:56.839Z,102716.86
2019-02-26T05:56:31.070Z,102713.83
2019-02-26T05:58:07.292Z,102707.44
2019-02-26T05:59:38.083Z,102714.03
2019-02-26T06:01:13.738Z,102723.81
2019-02-26T06:02:50.785Z,102739.54
2019-02-26T06:04:22.036Z,102741.58
2019-02-26T06:05:57.819Z,102732.30
2019-02-26T06:07:33.387Z,102726.07
2019-02-26T06:09:05.709Z,102724.56
2019-02-26T06:10:38.566Z,102724.27
2019-02-26T06:12:12.451Z,102720.01
2019-02-26T06:13:46.877Z,102729.01
2019-02-26T06:15:23.011Z,102736.78
2019-02-26T06:16:55.970Z,102749.48
2019-02-26T06:18:30.226Z,102756.58
2019-02-26T06:20:08.081Z,102754.38
2019-02-26T06:21:43.956Z,102749.83
2019-02-26T06:23:15.844Z,102760.70
2019-02-26T06:24:50.034Z,102769.84
2019-02-26T06:26:28.143Z,102755.94
2019-02-26T06:28:02.265Z,102765.28
2019-02-26T06:29:35.015Z,102770.58
2019-02-26T06:31:11.465Z,102768.91
2019-02-26T06:32:44.729Z,102772.63
2019-02-26T06:34:21.228Z,102775.08
2019-02-26T06:35:52.173Z,102777.80
2019-02-26T06:37:35.918Z,102759.96
2019-02-26T06:39:08.264Z,102772.16
2019-02-26T06:40:46.542Z,102769.64
2019-02-26T06:42:16.971Z,102780.28
2019-02-26T06:43:52.610Z,102772.23
2019-02-26T06:45:26.431Z,102777.64
2019-02-26T06:47:02.135Z,102781.88
2019-02-26T06:48:34.825Z,102783.78
2019-02-26T06:50:11.109Z,102796.97
2019-02-26T06:51:45.156Z,102798.36
2019-02-26T06:53:20.975Z,102799.73
2019-02-26T06:54:57.323Z,102801.12
2019-02-26T06:56:25.708Z,102796.63
2019-02-26T06:57:59.577Z,102797.52
2019-02-26T06:59:34.903Z,102791.95
2019-02-26T07:01:09.401Z,102794.02
2019-02-26T07:02:45.511Z,102781.69
2019-02-26T07:04:15.924Z,102787.77
2019-02-26T07:05:49.805Z,102787.48
2019-02-26T07:07:23.708Z,102796.40
2019-02-26T07:08:57.716Z,102799.89
2019-02-26T07:10:33.785Z,102802.64
2019-02-26T07:12:08.303Z,102794.98
2019-02-26T07:13:43.859Z,102799.37
2019-02-26T07:15:16.186Z,102811.25
2019-02-26T07:16:50.318Z,102797.06
2019-02-26T07:18:24.116Z,102785.62
2019-02-26T07:20:00.158Z,102806.24
2019-02-26T07:21:32.026Z,102793.23
2019-02-26T07:23:08.199Z,102803.71
2019-02-26T07:24:41.793Z,102813.05
2019-02-26T07:26:16.068Z,102810.85
2019-02-26T07:27:51.123Z,102813.42
2019-02-26T07:29:24.228Z,102807.21
2019-02-26T07:31:00.211Z,102821.55
2019-02-26T07:32:32.519Z,102826.11
2019-02-26T07:34:06.833Z,102820.19
2019-02-26T07:35:40.712Z,102815.92
2019-02-26T07:37:15.840Z,102805.14
2019-02-26T07:38:49.667Z,102805.48
2019-02-26T07:40:23.448Z,102807.85
2019-02-26T07:41:57.337Z,102809.87
2019-02-26T07:43:31.449Z,102817.48
2019-02-26T07:45:04.340Z,102826.28
2019-02-26T07:46:40.158Z,102830.30
2019-02-26T07:48:16.122Z,102834.56
2019-02-26T07:49:46.726Z,102826.48
2019-02-26T07:51:20.565Z,102823.11
2019-02-26T07:52:57.062Z,102833.42
2019-02-26T07:54:28.834Z,102827.80
2019-02-26T07:56:04.527Z,102832.70
2019-02-26T07:57:36.564Z,102835.19
2019-02-26T07:59:12.447Z,102835.83
2019-02-26T08:00:47.809Z,102827.70
2019-02-26T08:02:20.966Z,102831.09
2019-02-26T08:03:55.794Z,102826.87
2019-02-26T08:05:29.542Z,102843.59
2019-02-26T08:07:03.781Z,102852.22
2019-02-26T08:08:39.823Z,102837.97
2019-02-26T08:10:12.346Z,102835.81
2019-02-26T08:11:48.524Z,102838.70
2019-02-26T08:13:21.148Z,102837.85
2019-02-26T08:14:55.148Z,102848.66
2019-02-26T08:16:29.965Z,102843.59
2019-02-26T08:18:05.199Z,102843.60
2019-02-26T08:19:39.298Z,102845.30
2019-02-26T08:21:10.454Z,102841.95
2019-02-26T08:22:45.255Z,102837.85
2019-02-26T08:24:20.329Z,102841.40
2019-02-26T08:25:55.482Z,102847.70
2019-02-26T08:27:26.819Z,102846.48
2019-02-26T08:29:02.147Z,102840.55
2019-02-26T08:30:35.398Z,102842.12
2019-02-26T08:32:13.807Z,102831.98
2019-02-26T08:33:44.336Z,102837.91
2019-02-26T08:35:19.061Z,102834.18
2019-02-26T08:36:53.164Z,102838.88
2019-02-26T08:38:29.374Z,102843.64
2019-02-26T08:40:00.508Z,102847.36
2019-02-26T08:41:35.078Z,102849.40
2019-02-26T08:43:08.420Z,102842.12
2019-02-26T08:44:46.177Z,102840.98
2019-02-26T08:46:18.811Z,102843.52
2019-02-26T08:47:51.785Z,102831.19
2019-02-26T08:49:26.223Z,102831.05
2019-02-26T08:51:03.075Z,102835.96
2019-02-26T08:52:34.607Z,102829.70
2019-02-26T08:54:08.753Z,102843.95
2019-02-26T08:55:42.851Z,102834.34
2019-02-26T08:57:16.770Z,102818.78
2019-02-26T08:58:50.665Z,102820.81
2019-02-26T09:00:26.505Z,102818.81
2019-02-26T09:02:00.713Z,102815.27
2019-02-26T09:03:40.733Z,102833.20
2019-02-26T09:05:11.951Z,102829.64
2019-02-26T09:06:44.163Z,102827.13
2019-02-26T09:08:18.284Z,102838.13
2019-02-26T09:09:56.886Z,102822.91
2019-02-26T09:11:28.627Z,102826.63
2019-02-26T09:13:00.852Z,102818.53
2019-02-26T09:14:37.485Z,102825.30
2019-02-26T09:16:08.516Z,102824.97
2019-02-26T09:17:42.874Z,102825.64
2019-02-26T09:19:16.767Z,102835.45
2019-02-26T09:20:49.882Z,102829.87
2019-02-26T09:22:26.081Z,102823.63
2019-02-26T09:24:00.057Z,102823.30
2019-02-26T09:25:33.986Z,102818.38
2019-02-26T09:27:06.634Z,102827.05
2019-02-26T09:28:40.740Z,102816.37
2019-02-26T09:30:16.211Z,102821.94
2019-02-26T09:31:49.773Z,102828.91
2019-02-26T09:33:25.043Z,102825.69
2019-02-26T09:34:59.252Z,102828.39
2019-02-26T09:36:33.202Z,102823.99
2019-02-26T09:38:08.044Z,102823.00
2019-02-26T09:39:42.024Z,102831.14
2019-02-26T09:41:18.887Z,102834.16
2019-02-26T09:42:54.258Z,102838.39
2019-02-26T09:44:26.921Z,102831.80
2019-02-26T09:46:20.089Z,102839.75
2019-02-26T09:47:55.717Z,102840.64
2019-02-26T09:49:44.538Z,102826.08
2019-02-26T09:51:18.477Z,102828.28
2019-02-26T09:52:53.390Z,102835.57
2019-02-26T09:54:26.596Z,102831.14
2019-02-26T09:56:00.672Z,102839.80
2019-02-26T09:57:34.824Z,102837.92
2019-02-26T09:59:09.841Z,102835.22
2019-02-26T10:00:43.879Z,102841.65
2019-02-26T10:02:17.716Z,102837.08
2019-02-26T10:03:51.227Z,102843.36
2019-02-26T10:05:24.786Z,102836.41
2019-02-26T10:07:01.666Z,102842.68
2019-02-26T10:08:32.739Z,102847.41
2019-02-26T10:10:10.934Z,102843.87
2019-02-26T10:11:42.467Z,102843.69
2019-02-26T10:13:16.453Z,102849.11
2019-02-26T10:14:50.651Z,102859.95
2019-02-26T10:16:25.633Z,102859.29
2019-02-26T10:17:59.578Z,102857.25
2019-02-26T10:19:33.748Z,102858.95
2019-02-26T10:21:08.556Z,102858.11
2019-02-26T10:22:40.493Z,102863.04
2019-02-26T10:24:14.220Z,102858.45
2019-02-26T10:25:53.059Z,102859.30
2019-02-26T10:27:22.582Z,102862.67
2019-02-26T10:28:59.173Z,102864.22
2019-02-26T10:30:33.488Z,102865.10
2019-02-26T10:32:04.747Z,102865.77
2019-02-26T10:33:40.580Z,102870.84
2019-02-26T10:35:15.942Z,102861.02
2019-02-26T10:36:51.297Z,102866.44
2019-02-26T10:38:24.077Z,102864.08
2019-02-26T10:39:56.622Z,102869.83
2019-02-26T10:41:30.526Z,102880.67
2019-02-26T10:43:04.740Z,102883.87
2019-02-26T10:44:39.525Z,102882.19
2019-02-26T10:46:14.249Z,102879.30
2019-02-26T10:47:48.973Z,102875.59
2019-02-26T10:49:22.042Z,102878.29
2019-02-26T10:50:56.822Z,102863.67
2019-02-26T10:52:31.438Z,102856.19
2019-02-26T10:54:06.214Z,102863.67
2019-02-26T10:55:39.292Z,102856.53
2019-02-26T10:57:14.394Z,102861.81
2019-02-26T10:58:45.835Z,102855.17
2019-02-26T11:00:22.610Z,102854.17
2019-02-26T11:01:55.746Z,102866.34
2019-02-26T11:03:29.847Z,102865.31
2019-02-26T11:05:01.556Z,102859.89
2019-02-26T11:06:38.733Z,102864.29
2019-02-26T11:08:10.050Z,102863.96
2019-02-26T11:09:44.828Z,102865.98
2019-02-26T11:11:18.940Z,102861.25
2019-02-26T11:12:53.578Z,102867.16
2019-02-26T11:14:25.517Z,102855.40
2019-02-26T11:17:04.423Z,102858.08
2019-02-26T11:18:39.867Z,102853.84
2019-02-26T11:20:12.594Z,102849.23
2019-02-26T11:21:47.436Z,102852.12
2019-02-26T11:23:30.076Z,102853.86
2019-02-26T11:24:56.113Z,102842.12
2019-02-26T11:26:30.108Z,102842.56
2019-02-26T11:28:05.609Z,102839.33
2019-02-26T11:29:40.614Z,102842.57
2019-02-26T11:31:14.051Z,102843.72
2019-02-26T11:32:46.422Z,102840.21
2019-02-26T11:36:15.761Z,102837.86
2019-02-26T11:37:58.326Z,102831.14
2019-02-26T11:41:34.012Z,102829.47
2019-02-26T11:43:11.710Z,102820.14
2019-02-26T11:44:41.973Z,102821.28
2019-02-26T11:46:34.429Z,102821.64
2019-02-26T11:48:08.726Z,102820.05
2019-02-26T11:49:41.854Z,102811.80
2019-02-26T11:51:17.793Z,102811.27
2019-02-26T11:52:54.276Z,102811.77
2019-02-26T11:54:23.796Z,102810.84
2019-02-26T11:56:00.037Z,102816.09
2019-02-26T11:57:34.905Z,102814.48
2019-02-26T11:59:11.177Z,102810.05
2019-02-26T12:00:50.093Z,102808.12
2019-02-26T12:02:28.037Z,102810.78
2019-02-26T12:04:03.266Z,102810.14
2019-02-26T12:05:34.085Z,102817.22
2019-02-26T12:07:09.728Z,102820.22
2019-02-26T12:08:42.335Z,102824.59
2019-02-26T12:10:14.717Z,102825.95
2019-02-26T12:11:48.800Z,102819.74
2019-02-26T12:13:24.989Z,102811.95
2019-02-26T12:14:57.123Z,102819.31
2019-02-26T12:16:31.195Z,102820.84
2019-02-26T12:18:05.050Z,102818.86
2019-02-26T12:19:38.566Z,102824.27
2019-02-26T12:21:12.981Z,102825.21
2019-02-26T12:22:49.302Z,102822.74
2019-02-26T12:24:21.093Z,102821.12
2019-02-26T12:25:55.532Z,102823.53
2019-02-26T12:27:28.338Z,102825.31
2019-02-26T12:29:04.408Z,102824.98
2019-02-26T12:30:41.930Z,102824.19
2019-02-26T12:32:13.953Z,102818.27
2019-02-26T12:33:47.830Z,102821.02
2019-02-26T12:35:21.540Z,102821.58
2019-02-26T12:36:57.282Z,102822.00
2019-02-26T12:38:29.478Z,102820.86
2019-02-26T12:40:04.204Z,102821.98
2019-02-26T12:41:41.196Z,102822.00
2019-02-26T12:43:15.830Z,102817.06
2019-02-26T12:44:47.465Z,102830.22
2019-02-26T12:46:21.711Z,102827.04
2019-02-26T12:47:55.343Z,102835.66
2019-02-26T12:49:29.397Z,102842.58
2019-02-26T12:51:04.733Z,102832.05
2019-02-26T12:52:36.820Z,102828.05
2019-02-26T12:54:13.732Z,102830.52
2019-02-26T12:55:44.993Z,102834.16
2019-02-26T12:57:23.071Z,102833.92
2019-02-26T12:58:54.595Z,102841.88
2019-02-26T13:00:29.853Z,102843.08
2019-02-26T13:02:05.430Z,102838.35
2019-02-26T13:03:39.827Z,102841.78
2019-02-26T13:05:13.482Z,102841.24
2019-02-26T13:06:47.728Z,102834.23
2019-02-26T13:08:19.708Z,102831.72
2019-02-26T13:09:56.096Z,102831.14
2019-02-26T13:11:25.961Z,102832.33
2019-02-26T13:13:02.798Z,102828.96
2019-02-26T13:14:33.375Z,102825.02
2019-02-26T13:16:07.210Z,102831.70
2019-02-26T13:17:40.985Z,102826.73
2019-02-26T13:19:18.255Z,102831.28
2019-02-26T13:20:52.029Z,102831.31
2019-02-26T13:22:22.273Z,102822.80
2019-02-26T13:24:02.811Z,102825.74
2019-02-26T13:25:30.941Z,102826.12
2019-02-26T13:27:05.725Z,102817.27
2019-02-26T13:28:41.810Z,102812.87
2019-02-26T13:30:13.736Z,102809.04
2019-02-26T13:31:56.319Z,102804.89
2019-02-26T13:33:27.135Z,102802.64
2019-02-26T13:34:59.734Z,102803.09
2019-02-26T13:36:35.119Z,102811.58
2019-02-26T13:38:07.074Z,102815.65
2019-02-26T13:39:41.537Z,102811.23
2019-02-26T13:41:38.621Z,102799.87
2019-02-26T13:44:25.594Z,102803.95
2019-02-26T13:45:59.731Z,102797.86
2019-02-26T13:47:33.741Z,102800.55
2019-02-26T13:49:08.465Z,102792.03
2019-02-26T13:50:45.141Z,102791.98
2019-02-26T13:52:19.041Z,102792.57
2019-02-26T13:53:53.139Z,102801.49
2019-02-26T13:55:27.228Z,102799.51
2019-02-26T13:57:01.451Z,102793.46
2019-02-26T13:58:36.071Z,102796.73
2019-02-26T14:00:10.047Z,102797.13
2019-02-26T14:01:44.143Z,102796.67
2019-02-26T14:03:18.491Z,102794.73
2019-02-26T14:04:52.529Z,102791.23
2019-02-26T14:06:27.652Z,102789.47
2019-02-26T14:08:02.525Z,102783.14
2019-02-26T14:09:37.899Z,102778.61
2019-02-26T14:11:12.924Z,102769.13
2019-02-26T14:12:47.948Z,102775.48
2019-02-26T14:14:22.164Z,102771.51
2019-02-26T14:15:56.988Z,102766.20
2019-02-26T14:17:31.192Z,102768.12
2019-02-26T14:19:05.298Z,102772.00
2019-02-26T14:20:41.113Z,102772.95
2019-02-26T14:22:15.895Z,102773.40
2019-02-26T14:23:49.927Z,102769.08
2019-02-26T14:25:22.863Z,102764.31
2019-02-26T14:26:56.861Z,102769.13
2019-02-26T14:28:31.577Z,102761.61
2019-02-26T14:30:05.594Z,102759.94
2019-02-26T14:31:40.300Z,102761.84
2019-02-26T14:33:14.617Z,102757.17
2019-02-26T14:34:47.714Z,102750.14
2019-02-26T14:36:21.587Z,102735.63
2019-02-26T14:37:54.728Z,102730.11
2019-02-26T14:39:28.876Z,102731.96
2019-02-26T14:41:03.714Z,102735.48
2019-02-26T14:42:36.802Z,102741.04
2019-02-26T14:44:10.718Z,102743.24
2019-02-26T14:45:43.795Z,102740.98
2019-02-26T14:47:17.771Z,102736.39
2019-02-26T14:48:50.763Z,102732.47
2019-02-26T14:50:26.464Z,102738.13
2019-02-26T14:52:01.078Z,102727.16
2019-02-26T14:53:34.809Z,102737.47
2019-02-26T14:55:08.714Z,102740.96
2019-02-26T14:56:42.523Z,102730.73
2019-02-26T14:58:15.523Z,102729.89
2019-02-26T14:59:49.591Z,102731.27
2019-02-26T15:01:23.339Z,102726.75
2019-02-26T15:02:57.541Z,102726.13
2019-02-26T15:04:31.889Z,102731.48
2019-02-26T15:06:05.590Z,102720.12
2019-02-26T15:07:39.583Z,102725.20
2019-02-26T15:09:14.272Z,102726.56
2019-02-26T15:10:49.251Z,102729.83
2019-02-26T15:12:23.922Z,102733.30
2019-02-26T15:13:58.226Z,102723.62
2019-02-26T15:15:32.171Z,102718.76
2019-02-26T15:17:06.246Z,102719.62
2019-02-26T15:18:40.387Z,102733.49
2019-02-26T15:20:14.269Z,102732.01
2019-02-26T15:21:48.013Z,102730.28
2019-02-26T15:23:22.053Z,102739.73
2019-02-26T15:24:56.013Z,102737.59
2019-02-26T15:26:29.657Z,102732.15
2019-02-26T15:28:05.419Z,102728.44
2019-02-26T15:29:38.304Z,102724.62
2019-02-26T15:31:13.195Z,102732.00
2019-02-26T15:32:47.011Z,102736.88
2019-02-26T15:34:21.098Z,102736.94
2019-02-26T15:35:54.925Z,102741.87